Westerville, Nebraska
Current Conditions -  °F | °C
As of 1:53 PM on Friday 19 Dec 2014 (Local Time) from KBBW Reporting Station
Clear Clear  
Wind Chill: 27°   Ceiling: Unl
Heat Index: 34°   Visibility: 10mi
Dew Point: 28°   Wind: 8mph
Humidity: 79%   Direction: 170°S
Pressure: 30.01"   Gusts: NA
Location:  41.4°N, 99.38°W
Report Text: KBBW 191953Z AUTO 17007KT 10SM CLR 01/M02 A3001 RMK AO2 SLP188 T00111022
Loading
Personal Weather Stations






























Interactive Weather Map New forecast layout! Learn more

10-Day Weather Forecast

Advertisements
Track Severe Weather on mobile